createdAt,value
2022-09-15T00:01:42.137Z,84.21
2022-09-15T00:06:44.082Z,84.21
2022-09-15T00:11:46.074Z,84.43
2022-09-15T00:16:47.912Z,84.46
2022-09-15T00:21:50.024Z,84.49
2022-09-15T00:26:51.915Z,84.54
2022-09-15T00:31:53.824Z,84.31
2022-09-15T00:36:55.605Z,84.53
2022-09-15T00:41:57.410Z,84.57
2022-09-15T00:47:18.260Z,84.34
2022-09-15T00:52:36.272Z,84.27
2022-09-15T00:57:56.150Z,84.49
2022-09-15T01:02:59.241Z,84.61
2022-09-15T01:08:10.082Z,84.33
2022-09-15T01:13:14.723Z,84.32
2022-09-15T01:18:22.406Z,84.55
2022-09-15T01:23:42.807Z,84.46
2022-09-15T01:29:21.861Z,84.38
2022-09-15T01:34:25.981Z,84.12
2022-09-15T01:39:35.153Z,84.18
2022-09-15T01:44:47.905Z,84.40
2022-09-15T01:50:11.815Z,84.82
2022-09-15T01:55:27.036Z,84.69
2022-09-15T02:00:32.717Z,84.83
2022-09-15T02:05:45.132Z,84.80
2022-09-15T02:11:13.002Z,84.80
2022-09-15T02:16:22.484Z,84.75
2022-09-15T02:21:33.790Z,84.84
2022-09-15T02:26:39.292Z,84.89
2022-09-15T02:31:43.011Z,84.69
2022-09-15T02:36:46.391Z,84.70
2022-09-15T02:41:49.251Z,84.75
2022-09-15T02:46:51.463Z,84.63
2022-09-15T02:51:53.383Z,84.56
2022-09-15T02:56:55.216Z,84.87
2022-09-15T03:01:59.087Z,84.96
2022-09-15T03:07:00.968Z,84.69
2022-09-15T03:12:02.760Z,84.90
2022-09-15T03:17:04.936Z,84.82
2022-09-15T03:22:07.201Z,85.07
2022-09-15T03:27:09.450Z,84.62
2022-09-15T03:32:11.425Z,84.83
2022-09-15T03:37:13.293Z,84.70
2022-09-15T03:42:15.432Z,85.06
2022-09-15T03:47:17.564Z,84.83
2022-09-15T03:52:19.299Z,84.95
2022-09-15T03:57:21.227Z,85.12
2022-09-15T04:02:23.239Z,85.12
2022-09-15T04:07:25.772Z,84.82
2022-09-15T04:12:29.482Z,84.94
2022-09-15T04:17:31.313Z,84.87
2022-09-15T04:22:33.150Z,84.90
2022-09-15T04:27:36.529Z,85.01
2022-09-15T04:32:38.443Z,84.74
2022-09-15T04:37:40.200Z,84.98
2022-09-15T04:42:41.996Z,84.92
2022-09-15T04:47:43.776Z,84.87
2022-09-15T04:52:45.535Z,85.01
2022-09-15T04:57:47.301Z,85.08
2022-09-15T05:02:49.047Z,85.01
2022-09-15T05:07:51.962Z,85.09
2022-09-15T05:12:54.042Z,84.93
2022-09-15T05:17:55.825Z,84.79
2022-09-15T05:22:57.646Z,84.94
2022-09-15T05:27:59.572Z,85.06
2022-09-15T05:33:01.397Z,85.21
2022-09-15T05:38:03.597Z,85.17
2022-09-15T05:43:05.647Z,84.95
2022-09-15T05:48:07.450Z,85.05
2022-09-15T05:53:09.507Z,85.07
2022-09-15T05:58:11.882Z,85.12
2022-09-15T06:03:15.847Z,85.02
2022-09-15T06:08:17.764Z,85.21
2022-09-15T06:13:19.558Z,85.18
2022-09-15T06:18:21.362Z,85.08
2022-09-15T06:23:23.452Z,85.10
2022-09-15T06:28:25.251Z,85.24
2022-09-15T06:33:27.698Z,85.22
2022-09-15T06:38:30.477Z,85.21
2022-09-15T06:43:33.421Z,85.34
2022-09-15T06:48:36.712Z,85.29
2022-09-15T06:53:39.518Z,85.07
2022-09-15T06:58:43.084Z,85.04
2022-09-15T07:03:44.993Z,85.54
2022-09-15T07:08:48.021Z,85.52
2022-09-15T07:13:50.342Z,85.50
2022-09-15T07:18:55.802Z,85.40
2022-09-15T07:23:58.432Z,85.18
2022-09-15T07:29:02.756Z,85.08
2022-09-15T07:34:05.542Z,85.38
2022-09-15T07:39:07.393Z,85.16
2022-09-15T07:44:11.705Z,85.42
2022-09-15T07:49:13.684Z,85.08
2022-09-15T07:54:20.771Z,85.24
2022-09-15T07:59:24.282Z,85.26
2022-09-15T08:04:26.195Z,85.08
2022-09-15T08:09:28.160Z,85.12
2022-09-15T08:14:31.869Z,84.96
2022-09-15T08:19:35.605Z,84.73
2022-09-15T08:24:37.506Z,84.92
2022-09-15T08:29:39.350Z,84.81
2022-09-15T08:34:41.217Z,84.72
2022-09-15T08:39:43.120Z,84.69
2022-09-15T08:44:48.166Z,84.56
2022-09-15T08:50:14.661Z,84.45
2022-09-15T08:55:45.904Z,84.65
2022-09-15T09:00:51.923Z,84.34
2022-09-15T09:05:57.995Z,84.42
2022-09-15T09:11:10.003Z,84.35
2022-09-15T09:16:56.324Z,84.61
2022-09-15T09:22:23.267Z,84.54
2022-09-15T09:27:32.508Z,84.32
2022-09-15T09:32:40.811Z,84.17
2022-09-15T09:37:43.163Z,83.85
2022-09-15T09:42:45.543Z,83.76
2022-09-15T09:47:47.543Z,83.87
2022-09-15T09:52:49.422Z,83.85
2022-09-15T09:57:51.454Z,83.16
2022-09-15T10:02:53.228Z,83.47
2022-09-15T10:08:03.021Z,83.40
2022-09-15T10:13:04.944Z,83.14
2022-09-15T10:18:07.710Z,83.07
2022-09-15T10:23:18.822Z,83.02
2022-09-15T10:28:23.816Z,82.94
2022-09-15T10:33:28.187Z,82.87
2022-09-15T10:38:37.333Z,82.68
2022-09-15T10:43:41.667Z,82.43
2022-09-15T10:48:53.579Z,82.39
2022-09-15T10:54:07.259Z,82.34
2022-09-15T10:59:28.343Z,82.01
2022-09-15T11:04:32.987Z,81.93
2022-09-15T11:09:48.339Z,81.55
2022-09-15T11:14:58.881Z,81.62
2022-09-15T11:20:14.741Z,81.17
2022-09-15T11:25:24.321Z,81.34
2022-09-15T11:30:35.392Z,81.18
2022-09-15T11:36:02.963Z,80.73
2022-09-15T11:41:17.679Z,80.55
2022-09-15T11:46:28.667Z,80.76
2022-09-15T11:51:36.627Z,80.21
2022-09-15T11:56:47.529Z,79.97
2022-09-15T12:01:59.321Z,79.52
2022-09-15T12:07:20.738Z,79.29
2022-09-15T12:12:24.692Z,79.18
2022-09-15T12:17:52.465Z,78.89
2022-09-15T12:23:07.173Z,78.93
2022-09-15T12:28:24.341Z,78.96
2022-09-15T12:33:57.939Z,79.12
2022-09-15T12:39:02.290Z,79.02
2022-09-15T12:44:36.471Z,78.51
2022-09-15T12:49:44.727Z,78.34
2022-09-15T12:55:02.188Z,78.19
2022-09-15T13:00:23.470Z,78.19
2022-09-15T13:05:44.083Z,77.33
2022-09-15T13:11:22.802Z,77.10
2022-09-15T13:16:33.853Z,76.52
2022-09-15T13:21:39.714Z,76.50
2022-09-15T13:26:44.807Z,76.74
2022-09-15T13:32:01.144Z,76.71
2022-09-15T13:43:24.345Z,77.13
2022-09-15T13:48:43.198Z,76.44
2022-09-15T13:53:58.125Z,76.14
2022-09-15T13:59:10.153Z,76.58
2022-09-15T14:09:26.804Z,76.76
2022-09-15T14:14:28.540Z,76.82
2022-09-15T14:19:35.870Z,77.17
2022-09-15T14:24:40.334Z,76.78
2022-09-15T14:29:45.001Z,76.67
2022-09-15T14:39:57.407Z,76.45
2022-09-15T14:50:34.268Z,75.94
2022-09-15T14:56:00.006Z,76.12
2022-09-15T15:01:22.625Z,75.75
2022-09-15T15:06:49.762Z,75.73
2022-09-15T15:11:55.355Z,75.79
2022-09-15T15:17:06.120Z,75.66
2022-09-15T15:22:14.184Z,75.70
2022-09-15T15:27:34.089Z,75.58
2022-09-15T15:32:35.943Z,75.80
2022-09-15T15:37:37.683Z,75.77
2022-09-15T15:42:59.265Z,75.62
2022-09-15T15:48:04.073Z,75.64
2022-09-15T15:53:05.947Z,75.29
2022-09-15T15:58:10.382Z,75.45
2022-09-15T16:03:13.748Z,75.40
2022-09-15T16:08:26.901Z,75.57
2022-09-15T16:13:29.395Z,75.51
2022-09-15T16:18:31.424Z,75.40
2022-09-15T16:23:33.290Z,75.08
2022-09-15T16:28:35.261Z,75.07
2022-09-15T16:33:38.265Z,74.98
2022-09-15T16:38:43.982Z,75.11
2022-09-15T16:43:47.052Z,74.99
2022-09-15T16:48:48.932Z,74.80
2022-09-15T16:53:54.186Z,74.91
2022-09-15T16:59:00.249Z,74.96
2022-09-15T17:04:03.812Z,74.94
2022-09-15T17:09:05.628Z,75.05
2022-09-15T17:14:12.482Z,75.10
2022-09-15T17:19:14.265Z,75.11
2022-09-15T17:24:17.510Z,75.26
2022-09-15T17:29:19.272Z,75.45
2022-09-15T17:34:21.108Z,75.29
2022-09-15T17:39:23.182Z,75.60
2022-09-15T17:44:25.042Z,75.63
2022-09-15T17:49:27.484Z,75.32
2022-09-15T17:54:31.315Z,75.35
2022-09-15T17:59:33.194Z,75.39
2022-09-15T18:04:35.023Z,75.21
2022-09-15T18:09:37.030Z,75.03
2022-09-15T18:14:39.230Z,75.13
2022-09-15T18:19:41.220Z,75.27
2022-09-15T18:24:43.097Z,74.94
2022-09-15T18:29:44.967Z,75.02
2022-09-15T18:34:47.670Z,75.08
2022-09-15T18:39:49.537Z,74.91
2022-09-15T18:44:51.561Z,74.91
2022-09-15T18:49:54.131Z,74.95
2022-09-15T18:54:55.967Z,74.76
2022-09-15T18:59:57.821Z,74.69
2022-09-15T19:04:59.567Z,74.83
2022-09-15T19:10:01.754Z,74.79
2022-09-15T19:15:12.098Z,74.65
2022-09-15T19:20:15.743Z,74.59
2022-09-15T19:25:17.643Z,74.52
2022-09-15T19:30:19.751Z,74.65
2022-09-15T19:35:21.611Z,74.57
2022-09-15T19:40:23.943Z,74.17
2022-09-15T19:45:25.862Z,74.23
2022-09-15T19:50:27.931Z,74.11
2022-09-15T19:55:29.803Z,74.05
2022-09-15T20:00:31.601Z,73.64
2022-09-15T20:05:33.336Z,73.41
2022-09-15T20:10:35.091Z,73.33
2022-09-15T20:15:37.090Z,73.26
2022-09-15T20:20:40.311Z,72.88
2022-09-15T20:25:42.261Z,72.87
2022-09-15T20:30:44.003Z,72.84
2022-09-15T20:35:46.044Z,72.66
2022-09-15T20:40:47.963Z,72.64
2022-09-15T20:46:03.884Z,72.45
2022-09-15T20:51:08.611Z,72.55
2022-09-15T20:56:10.544Z,72.41
2022-09-15T21:01:16.005Z,72.61
2022-09-15T21:06:20.121Z,72.42
2022-09-15T21:11:24.031Z,72.40
2022-09-15T21:16:28.273Z,71.89
2022-09-15T21:21:32.663Z,72.25
2022-09-15T21:26:57.526Z,72.28
2022-09-15T21:31:59.680Z,72.38
2022-09-15T21:37:01.497Z,72.69
2022-09-15T21:42:05.324Z,72.85
2022-09-15T21:47:07.107Z,73.11
2022-09-15T21:52:09.502Z,73.33
2022-09-15T21:57:11.286Z,73.46
2022-09-15T22:02:13.366Z,73.38
2022-09-15T22:07:19.514Z,73.44
2022-09-15T22:12:21.252Z,73.63
2022-09-15T22:17:23.075Z,73.50
2022-09-15T22:22:25.350Z,73.58
2022-09-15T22:27:27.247Z,73.63
2022-09-15T22:32:30.413Z,73.62
2022-09-15T22:37:33.788Z,73.40
2022-09-15T22:42:35.653Z,73.61
2022-09-15T22:47:37.483Z,73.24
2022-09-15T22:52:39.473Z,73.29
2022-09-15T22:57:41.793Z,73.19
2022-09-15T23:02:44.351Z,72.96
2022-09-15T23:07:46.217Z,73.06
2022-09-15T23:12:48.022Z,72.99
2022-09-15T23:17:49.855Z,72.54
2022-09-15T23:22:52.571Z,72.74
2022-09-15T23:27:54.437Z,72.75
2022-09-15T23:32:56.302Z,72.75
2022-09-15T23:37:59.316Z,72.74
2022-09-15T23:43:01.407Z,72.56
2022-09-15T23:48:10.678Z,72.34
2022-09-15T23:53:12.917Z,72.35
2022-09-15T23:58:14.752Z,72.13
